Time;durP1;ratioP1;P1;durP2;ratioP2;P2;SDS_P1;SDS_P2;PMS_P1;PMS_P2;Temp;Humidity;BMP_temperature;BMP_pressure;BME280_temperature;BME280_humidity;BME280_pressure;Samples;Min_cycle;Max_cycle;Signal;HPM_P1;HPM_P2
2021/06/16 00:00:26;;;;;;;7.70;1.98;;;8.70;99.90;;;7.31;100.00;101746.06;5003585;28;20075;-71
2021/06/16 00:02:52;;;;;;;3.60;1.45;;;8.70;99.90;;;7.27;100.00;101747.00;4999555;28;20126;-71
2021/06/16 00:05:24;;;;;;;3.97;1.40;;;8.40;99.90;;;6.72;93.53;101744.34;4988460;28;20533;-70
2021/06/16 00:07:50;;;;;;;4.85;1.10;;;7.90;99.90;;;6.34;93.41;101740.47;5002231;28;20090;-71
2021/06/16 00:10:22;;;;;;;2.60;1.08;;;7.70;99.90;;;6.27;96.44;101751.06;5013134;28;20146;-71
2021/06/16 00:12:48;;;;;;;4.60;1.20;;;7.80;99.90;;;6.32;99.20;101759.69;5022061;28;20063;-71
2021/06/16 00:15:31;;;;;;;6.75;1.23;;;7.80;99.90;;;6.35;100.00;101757.06;5016165;28;20055;-71
2021/06/16 00:17:57;;;;;;;7.15;1.40;;;7.90;99.90;;;6.42;100.00;101752.63;5020571;28;20071;-71
2021/06/16 00:20:24;;;;;;;5.55;1.52;;;8.00;99.90;;;6.55;100.00;101754.19;5007760;28;20069;-71
2021/06/16 00:22:52;;;;;;;5.47;2.00;;;8.00;99.90;;;6.63;100.00;101754.06;5019320;28;20089;-71
2021/06/16 00:25:19;;;;;;;8.85;1.95;;;8.10;99.90;;;6.72;100.00;101754.81;5006861;28;20447;-71
2021/06/16 00:27:44;;;;;;;3.55;2.00;;;8.30;99.90;;;6.86;100.00;101751.13;5019651;28;20093;-71
2021/06/16 00:30:12;;;;;;;4.22;2.00;;;8.30;99.90;;;6.86;100.00;101754.59;5013677;28;20063;-71
2021/06/16 00:32:41;;;;;;;3.75;1.67;;;8.30;99.90;;;6.87;100.00;101758.97;5019345;28;20075;-71
2021/06/16 00:35:07;;;;;;;2.78;1.70;;;8.30;99.90;;;6.83;100.00;101751.19;5031013;28;20070;-71
2021/06/16 00:37:35;;;;;;;4.53;1.80;;;8.10;99.90;;;6.57;98.51;101750.66;5037082;28;20062;-71
2021/06/16 00:40:11;;;;;;;2.45;1.33;;;7.70;99.90;;;6.10;95.40;101748.63;5006751;28;20066;-71
2021/06/16 00:42:37;;;;;;;4.25;1.20;;;7.30;99.90;;;5.63;95.70;101752.56;5009535;28;20068;-71
2021/06/16 00:45:06;;;;;;;1.52;0.90;;;7.00;99.90;;;5.41;96.72;101758.00;5005954;28;20063;-71
2021/06/16 00:47:32;;;;;;;7.28;1.00;;;6.80;99.90;;;5.28;97.83;101754.63;5019779;28;20074;-71
2021/06/16 00:49:58;;;;;;;3.95;0.90;;;6.70;99.90;;;5.26;97.96;101753.78;5022518;28;20063;-71
2021/06/16 00:52:24;;;;;;;3.13;1.35;;;6.80;99.90;;;5.32;99.51;101752.88;5022587;28;20058;-71
2021/06/16 00:54:50;;;;;;;2.08;1.30;;;6.80;99.90;;;5.33;99.71;101762.41;5036938;28;20072;-71
2021/06/16 00:57:17;;;;;;;3.10;1.48;;;6.80;99.90;;;5.35;99.66;101765.88;5020936;28;20067;-71
2021/06/16 01:00:06;;;;;;;2.20;1.42;;;6.90;99.90;;;5.41;100.00;101763.22;4991806;28;20064;-71
2021/06/16 01:02:54;;;;;;;5.40;1.60;;;6.90;99.90;;;5.39;100.00;101759.75;5012539;28;20426;-71
2021/06/16 01:05:24;;;;;;;10.07;1.60;;;6.90;99.90;;;5.34;100.00;101762.41;5018765;28;20440;-71
2021/06/16 01:07:57;;;;;;;1.98;1.50;;;6.80;99.90;;;5.34;100.00;101756.34;5021385;28;20131;-71
2021/06/16 01:10:26;;;;;;;3.78;1.58;;;6.80;99.90;;;5.34;100.00;101762.41;5043166;28;20065;-71
2021/06/16 01:13:18;;;;;;;4.13;1.50;;;6.80;99.90;;;5.22;100.00;101766.88;5012871;28;20067;-71
2021/06/16 01:16:11;;;;;;;3.22;0.80;;;6.70;99.90;;;5.16;99.20;101761.69;5021514;28;20073;-71
2021/06/16 01:19:31;;;;;;;2.50;1.05;;;6.60;99.90;;;5.05;98.54;101762.63;5001801;28;20518;-71
2021/06/16 01:22:03;;;;;;;4.55;1.25;;;6.60;99.90;;;5.03;99.20;101761.81;4985086;28;20578;-71
2021/06/16 01:24:31;;;;;;;3.55;1.38;;;6.50;99.90;;;5.04;99.17;101757.44;5002572;28;20073;-71
2021/06/16 01:26:58;;;;;;;4.43;1.73;;;6.60;99.90;;;5.13;100.00;101754.75;5016028;28;20078;-71
2021/06/16 01:29:37;;;;;;;3.80;1.75;;;6.70;99.90;;;5.30;100.00;101752.00;4985690;28;20065;-71
2021/06/16 01:32:05;;;;;;;4.60;1.48;;;6.80;99.90;;;5.39;100.00;101757.16;5019445;28;20093;-71
2021/06/16 01:34:31;;;;;;;3.92;1.85;;;7.00;99.90;;;5.52;100.00;101756.16;4980558;28;20094;-71
2021/06/16 01:36:59;;;;;;;4.45;2.13;;;7.10;99.90;;;5.63;100.00;101757.81;5001628;28;20062;-71
2021/06/16 01:39:33;;;;;;;2.50;1.60;;;7.10;99.90;;;5.67;100.00;101765.59;5018497;28;20070;-71
2021/06/16 01:42:07;;;;;;;5.88;1.80;;;7.20;99.90;;;5.73;100.00;101762.94;5018528;28;20161;-71
2021/06/16 01:44:34;;;;;;;5.50;1.83;;;7.30;99.90;;;5.83;100.00;101763.72;5022188;28;20092;-71
2021/06/16 01:47:01;;;;;;;3.58;2.00;;;7.30;99.90;;;5.87;100.00;101756.69;5036856;28;20092;-71
2021/06/16 01:49:29;;;;;;;2.58;1.95;;;7.30;99.90;;;5.86;100.00;101755.81;5020532;28;20074;-71
2021/06/16 01:51:56;;;;;;;7.10;2.55;;;7.30;99.90;;;5.84;100.00;101757.59;5020706;28;20054;-71
2021/06/16 01:54:24;;;;;;;4.32;1.90;;;7.30;99.90;;;5.80;100.00;101760.25;5002829;28;20073;-71
2021/06/16 01:56:54;;;;;;;10.88;2.42;;;7.20;99.90;;;5.72;100.00;101757.72;5028292;28;20071;-72
2021/06/16 01:59:21;;;;;;;5.30;1.85;;;7.20;99.90;;;5.70;100.00;101749.91;5020172;28;20070;-71
2021/06/16 02:01:49;;;;;;;6.78;1.63;;;7.20;99.90;;;5.73;100.00;101746.38;5020697;28;21244;-71
2021/06/16 02:04:17;;;;;;;9.43;2.00;;;7.30;99.90;;;5.79;100.00;101754.16;5019839;28;20078;-71
2021/06/16 02:06:48;;;;;;;5.88;1.65;;;7.30;99.90;;;5.81;100.00;101746.28;5005061;28;20091;-72
2021/06/16 02:09:15;;;;;;;8.15;1.75;;;7.30;99.90;;;5.75;100.00;101748.09;5015783;28;20557;-72
2021/06/16 02:11:44;;;;;;;3.53;1.95;;;7.20;99.90;;;5.64;100.00;101742.13;5021458;28;20476;-72
2021/06/16 02:14:18;;;;;;;3.03;1.40;;;7.00;99.90;;;5.36;100.00;101746.75;5017998;28;20053;-72
2021/06/16 02:17:13;;;;;;;2.63;1.50;;;6.80;99.90;;;5.23;99.85;101752.94;5034449;28;20062;-72
2021/06/16 02:19:42;;;;;;;2.70;1.50;;;6.60;99.90;;;5.05;99.74;101752.19;5020420;28;20073;-71
2021/06/16 02:22:09;;;;;;;1.48;1.25;;;6.50;99.90;;;4.93;99.59;101760.13;5011537;28;20465;-71
2021/06/16 02:24:36;;;;;;;1.90;1.13;;;6.40;99.90;;;4.87;99.55;101761.00;5018655;28;20202;-71
2021/06/16 02:27:04;;;;;;;3.90;1.25;;;6.40;99.90;;;4.81;100.00;101770.63;5019839;28;20153;-71
2021/06/16 02:29:30;;;;;;;2.38;1.17;;;6.30;99.90;;;4.69;99.83;101769.84;5035797;28;20066;-72
2021/06/16 02:31:58;;;;;;;3.15;1.20;;;6.20;99.90;;;4.58;99.59;101755.09;4995435;28;20084;-71
2021/06/16 02:34:26;;;;;;;2.55;1.05;;;6.10;99.90;;;4.51;99.29;101762.09;5032457;28;20461;-71
2021/06/16 02:36:58;;;;;;;5.65;1.50;;;6.10;99.90;;;4.49;99.33;101753.41;5036249;28;20072;-71
2021/06/16 02:39:33;;;;;;;2.35;1.48;;;6.10;99.90;;;4.68;100.00;101762.00;5028336;28;20064;-71
2021/06/16 02:42:01;;;;;;;3.42;1.30;;;6.40;99.90;;;4.97;100.00;101759.22;5018362;28;20513;-71
2021/06/16 02:44:28;;;;;;;6.78;1.60;;;6.70;99.90;;;5.28;100.00;101759.00;5019488;28;20085;-71
2021/06/16 02:46:56;;;;;;;4.03;1.80;;;6.90;99.90;;;5.43;100.00;101753.63;5023226;28;20158;-71
2021/06/16 02:49:38;;;;;;;3.08;1.63;;;7.00;99.90;;;5.52;100.00;101757.91;5026172;28;20486;-72
2021/06/16 02:52:09;;;;;;;3.65;1.75;;;7.00;99.90;;;5.48;100.00;101764.88;5036202;28;22424;-72
2021/06/16 02:54:36;;;;;;;6.53;2.00;;;7.00;99.90;;;5.41;100.00;101765.84;4986088;28;20074;-72
2021/06/16 02:57:06;;;;;;;4.80;1.65;;;6.80;99.90;;;5.31;100.00;101772.91;4998590;28;20063;-72
2021/06/16 02:59:34;;;;;;;10.57;2.00;;;6.80;99.90;;;5.26;100.00;101763.34;5002671;28;20060;-72
2021/06/16 03:02:01;;;;;;;6.13;1.85;;;6.80;99.90;;;5.20;100.00;101761.66;5001821;28;20086;-72
2021/06/16 03:04:28;;;;;;;3.28;1.35;;;6.70;99.90;;;5.16;100.00;101759.94;4992186;28;20074;-71
2021/06/16 03:06:56;;;;;;;5.90;2.15;;;6.80;99.90;;;5.24;100.00;101760.75;5012051;28;20056;-72
2021/06/16 03:09:24;;;;;;;2.50;1.40;;;6.80;99.90;;;5.34;100.00;101757.19;5020811;28;20161;-72
2021/06/16 03:11:52;;;;;;;1.50;1.40;;;6.90;99.90;;;5.43;100.00;101761.47;5021575;28;20484;-72
2021/06/16 03:14:23;;;;;;;5.22;1.80;;;7.00;99.90;;;5.50;100.00;101757.91;5019131;28;20066;-72
2021/06/16 03:16:54;;;;;;;1.48;1.35;;;7.00;99.90;;;5.30;99.88;101758.09;4999062;28;20074;-72
2021/06/16 03:19:24;;;;;;;5.75;1.45;;;6.60;99.90;;;4.90;96.62;101763.63;4999647;28;20083;-72
2021/06/16 03:21:52;;;;;;;1.55;1.08;;;6.40;99.90;;;4.82;98.18;101765.41;5010140;28;20096;-71
2021/06/16 03:24:23;;;;;;;3.15;1.55;;;6.40;99.90;;;4.82;99.03;101762.81;5019959;28;20070;-72
2021/06/16 03:26:51;;;;;;;2.08;1.27;;;6.40;99.90;;;4.87;99.05;101761.00;5018199;28;20067;-72
2021/06/16 03:29:18;;;;;;;2.28;1.02;;;6.60;99.90;;;5.09;100.00;101761.72;5007274;28;20087;-72
2021/06/16 03:31:46;;;;;;;5.38;2.15;;;6.90;99.90;;;5.41;100.00;101767.59;5019250;28;20510;-72
2021/06/16 03:34:13;;;;;;;2.30;1.33;;;7.10;99.90;;;5.57;100.00;101765.69;5020886;28;20522;-72
2021/06/16 03:36:42;;;;;;;1.65;1.40;;;7.10;99.90;;;5.62;100.00;101767.41;5032063;28;20078;-72
2021/06/16 03:39:09;;;;;;;3.15;1.25;;;7.10;99.90;;;5.55;98.86;101771.81;5003787;28;20074;-72
2021/06/16 03:41:36;;;;;;;2.28;1.70;;;7.50;99.90;;;6.21;99.30;101766.81;4994598;28;20098;-72
2021/06/16 03:44:05;;;;;;;2.92;1.20;;;9.00;99.90;;;7.56;95.73;101768.31;5009904;28;20561;-72
2021/06/16 03:46:36;;;;;;;4.28;0.88;;;10.80;99.90;;;9.15;90.81;101765.06;5022196;28;20080;-73
2021/06/16 03:49:08;;;;;;;2.83;0.88;;;12.50;99.90;;;10.56;84.04;101761.31;5002593;28;20569;-72
2021/06/16 03:51:36;;;;;;;1.38;0.63;;;13.90;99.90;;;11.48;77.68;101762.78;5023911;28;20074;-73
2021/06/16 03:54:11;;;;;;;2.53;0.60;;;14.70;99.90;;;12.22;75.62;101760.19;5022277;28;20063;-73
2021/06/16 03:56:43;;;;;;;2.80;0.60;;;15.90;99.90;;;13.50;71.62;101758.69;4997872;28;20139;-72
2021/06/16 03:59:11;;;;;;;3.25;0.52;;;17.10;99.90;;;14.66;67.19;101762.38;5005873;28;20058;-72
2021/06/16 04:01:39;;;;;;;4.50;0.75;;;18.00;99.90;;;15.54;63.86;101761.59;5006692;28;20112;-73
2021/06/16 04:04:11;;;;;;;2.30;0.68;;;19.00;99.90;;;16.12;58.63;101755.94;5022046;28;20482;-73
2021/06/16 04:06:45;;;;;;;3.95;0.77;;;19.70;99.90;;;16.77;57.58;101760.38;5022045;28;20030;-73
2021/06/16 04:09:16;;;;;;;0.88;0.60;;;20.20;99.90;;;17.42;56.17;101755.72;5006451;28;20172;-73
2021/06/16 04:11:43;;;;;;;1.42;0.50;;;20.70;98.00;;;17.78;54.28;101750.97;5026934;28;20029;-73
2021/06/16 04:14:10;;;;;;;2.60;0.60;;;21.00;96.40;;;17.59;54.73;101761.88;5022582;28;20063;-73
2021/06/16 04:16:40;;;;;;;3.13;0.63;;;21.40;96.00;;;18.19;53.59;101756.44;5024736;28;20117;-73
2021/06/16 04:19:06;;;;;;;3.80;0.60;;;21.70;95.30;;;18.74;52.78;101759.22;4997850;28;20416;-73
2021/06/16 04:21:32;;;;;;;0.68;0.55;;;21.70;95.50;;;18.41;53.60;101758.59;4983208;28;20030;-73
2021/06/16 04:23:57;;;;;;;2.38;0.80;;;22.20;94.50;;;19.20;51.39;101761.56;5000058;28;20049;-73
2021/06/16 04:26:25;;;;;;;1.95;0.60;;;22.60;93.20;;;19.30;51.41;101768.00;4980018;28;20040;-73
2021/06/16 04:28:51;;;;;;;2.55;0.77;;;23.10;93.20;;;19.91;49.87;101770.16;5008505;28;20041;-73
2021/06/16 04:31:18;;;;;;;1.50;0.60;;;23.40;92.40;;;20.51;49.28;101766.78;5001258;28;20109;-73
2021/06/16 04:33:45;;;;;;;3.40;0.65;;;23.80;91.00;;;20.44;47.75;101765.50;4984340;28;20231;-74
2021/06/16 04:36:11;;;;;;;1.77;0.70;;;23.90;90.40;;;20.48;48.93;101769.69;5001225;28;20753;-73
2021/06/16 04:38:37;;;;;;;2.70;0.88;;;24.20;91.20;;;21.32;47.66;101762.63;5002439;28;20394;-73
2021/06/16 04:41:04;;;;;;;3.05;0.75;;;24.50;90.30;;;21.43;47.79;101760.00;4982944;28;20539;-73
2021/06/16 04:43:30;;;;;;;3.05;0.90;;;24.50;88.10;;;22.82;41.87;101767.88;4987006;28;20037;-73
2021/06/16 04:45:56;;;;;;;4.82;1.25;;;24.10;88.00;;;22.47;41.71;101771.63;4983563;28;20029;-73
2021/06/16 04:48:22;;;;;;;3.08;1.02;;;24.10;86.70;;;21.45;43.00;101766.13;4986271;28;20038;-73
2021/06/16 04:50:48;;;;;;;3.92;1.00;;;22.30;88.80;;;19.34;48.16;101777.53;4976323;28;20029;-73
2021/06/16 04:53:15;;;;;;;3.53;1.48;;;20.80;92.60;;;18.61;52.44;101769.81;5004689;28;20041;-73
2021/06/16 04:55:40;;;;;;;5.13;0.70;;;20.70;93.90;;;18.91;52.64;101777.69;4975691;28;20033;-73
2021/06/16 04:58:06;;;;;;;1.90;0.75;;;21.90;92.30;;;20.53;46.83;101764.84;5000664;28;20022;-73
2021/06/16 05:00:32;;;;;;;1.58;0.63;;;22.60;91.60;;;21.43;44.54;101759.16;5002026;28;20477;-73
2021/06/16 05:02:59;;;;;;;3.70;0.98;;;23.60;90.10;;;22.76;41.18;101758.50;4993595;28;20022;-74
2021/06/16 05:05:27;;;;;;;5.78;0.90;;;23.50;87.70;;;21.23;43.63;101764.19;5001104;28;20509;-73
2021/06/16 05:07:53;;;;;;;2.55;0.82;;;23.50;89.40;;;21.55;44.46;101768.09;5001770;28;20042;-74
2021/06/16 05:10:19;;;;;;;3.15;0.70;;;24.10;86.90;;;22.63;42.47;101765.84;4999765;28;20112;-74
2021/06/16 05:12:46;;;;;;;2.25;0.70;;;22.80;88.40;;;20.58;46.35;101765.41;5002646;28;20439;-73
2021/06/16 05:15:13;;;;;;;3.78;0.90;;;22.30;91.30;;;20.81;46.20;101758.34;5000873;28;20036;-73
2021/06/16 05:17:40;;;;;;;2.13;0.80;;;23.00;87.80;;;22.12;41.00;101761.84;4999001;28;20036;-73
2021/06/16 05:20:10;;;;;;;3.45;0.70;;;23.00;89.60;;;22.48;41.88;101762.56;5000044;28;20497;-74
2021/06/16 05:22:36;;;;;;;3.80;0.70;;;23.50;87.60;;;22.18;43.07;101769.41;5032788;28;20109;-73
2021/06/16 05:25:07;;;;;;;4.40;0.85;;;24.40;86.00;;;23.71;38.98;101761.31;5021690;28;20041;-74
2021/06/16 05:27:34;;;;;;;4.20;0.80;;;25.20;84.30;;;24.03;37.36;101757.66;5017929;28;20044;-74
2021/06/16 05:30:05;;;;;;;5.95;1.30;;;24.10;86.20;;;22.31;41.98;101762.13;5014681;28;20423;-74
2021/06/16 05:32:31;;;;;;;3.97;1.05;;;23.80;88.10;;;22.12;42.69;101760.00;5004334;28;20091;-74
2021/06/16 05:34:56;;;;;;;2.72;0.80;;;23.70;85.90;;;22.61;41.14;101751.69;5003682;28;20037;-74
2021/06/16 05:37:23;;;;;;;8.18;1.30;;;24.40;85.00;;;23.99;37.31;101750.84;5020580;28;20030;-74
2021/06/16 05:39:49;;;;;;;1.65;0.88;;;25.30;83.00;;;24.94;35.39;101752.28;5017771;28;20033;-74
2021/06/16 05:42:16;;;;;;;1.58;0.80;;;25.60;80.60;;;24.54;37.37;101750.53;5007838;28;20052;-74
2021/06/16 05:44:42;;;;;;;3.30;0.90;;;26.50;79.50;;;26.02;34.63;101758.44;5014600;28;20049;-74
2021/06/16 05:47:08;;;;;;;2.03;0.82;;;;;;;25.63;33.94;101755.81;5016233;28;20037;-74
2021/06/16 05:49:34;;;;;;;2.50;0.90;;;26.80;76.80;;;26.24;33.21;101760.78;5020340;28;20075;-74
2021/06/16 05:52:00;;;;;;;2.45;0.90;;;27.60;73.30;;;26.58;32.32;101755.63;5020335;28;20018;-74
2021/06/16 05:54:27;;;;;;;5.97;1.20;;;28.20;72.40;;;26.54;33.00;101766.84;5023174;28;20028;-74
2021/06/16 05:56:53;;;;;;;3.53;0.95;;;28.90;70.70;;;27.83;30.02;101772.81;5020140;28;20018;-75
2021/06/16 05:59:19;;;;;;;5.10;0.98;;;28.60;69.60;;;27.07;31.07;101766.09;5004402;28;20026;-74
2021/06/16 06:01:45;;;;;;;3.70;1.10;;;28.50;67.40;;;26.79;31.10;101766.16;5018017;28;20026;-74
2021/06/16 06:04:11;;;;;;;4.88;1.00;;;27.50;70.10;;;25.88;32.67;101768.72;5018086;28;20544;-74
2021/06/16 06:06:37;;;;;;;3.08;1.15;;;26.90;72.10;;;25.50;34.53;101767.75;5013402;28;20025;-75
2021/06/16 06:09:07;;;;;;;1.40;0.90;;;27.30;71.20;;;26.45;32.23;101765.91;5003182;28;20036;-74
2021/06/16 06:11:34;;;;;;;2.35;0.80;;;27.80;68.70;;;26.42;32.14;101762.69;5002440;28;20029;-74
2021/06/16 06:14:01;;;;;;;2.53;0.80;;;28.60;67.00;;;27.69;29.06;101755.31;5004374;28;20021;-74
2021/06/16 06:16:27;;;;;;;4.78;1.02;;;29.10;65.80;;;27.98;29.76;101765.81;5005193;28;20041;-75
2021/06/16 06:18:53;;;;;;;9.25;2.08;;;28.90;66.20;;;28.00;29.88;101758.41;5009837;28;20100;-74
2021/06/16 06:21:19;;;;;;;4.53;1.45;;;28.60;67.30;;;26.15;31.82;101764.34;4994478;28;20021;-74
2021/06/16 06:23:45;;;;;;;2.83;1.00;;;27.60;68.00;;;26.49;31.55;101761.06;4995921;28;20551;-74
2021/06/16 06:26:11;;;;;;;5.00;0.98;;;27.50;69.20;;;24.53;34.67;101764.97;5001718;28;20120;-74
2021/06/16 06:28:39;;;;;;;2.47;0.88;;;24.30;71.80;;;21.86;39.64;101774.63;5010820;28;20041;-73
2021/06/16 06:31:05;;;;;;;7.05;1.92;;;24.10;75.70;;;23.52;36.53;101767.41;5019305;28;20026;-74
2021/06/16 06:33:32;;;;;;;1.70;0.63;;;24.40;76.00;;;23.97;36.76;101766.25;5002667;28;20307;-73
2021/06/16 06:35:57;;;;;;;2.42;0.55;;;24.30;73.50;;;22.39;39.13;101763.31;5011076;28;20120;-73
2021/06/16 06:38:23;;;;;;;2.88;0.75;;;24.00;75.50;;;23.66;35.97;101762.66;5001677;28;20025;-73
2021/06/16 06:40:50;;;;;;;1.83;0.68;;;25.10;72.70;;;24.57;34.61;101755.63;5039503;28;20366;-73
2021/06/16 06:43:16;;;;;;;3.03;0.70;;;25.60;71.50;;;24.27;33.17;101762.72;5019765;28;20037;-73
2021/06/16 06:45:42;;;;;;;4.05;1.10;;;25.50;71.60;;;24.66;33.71;101762.88;5020955;28;20409;-73
2021/06/16 06:48:09;;;;;;;1.73;0.50;;;25.50;71.70;;;24.24;34.33;101756.78;5017730;28;20041;-74
2021/06/16 06:50:35;;;;;;;2.90;0.80;;;24.00;70.80;;;22.39;36.47;101761.47;5009756;28;20432;-73
2021/06/16 06:53:00;;;;;;;0.80;0.60;;;24.90;71.20;;;24.11;33.11;101759.69;5001131;28;20473;-73
2021/06/16 06:55:26;;;;;;;3.47;0.70;;;25.20;70.70;;;24.74;33.08;101754.94;5009963;28;20042;-73
2021/06/16 06:57:52;;;;;;;3.15;0.93;;;26.10;69.60;;;25.72;31.49;101752.25;4998701;28;20037;-74
2021/06/16 07:00:19;;;;;;;3.28;0.90;;;27.20;66.20;;;26.49;29.68;101750.25;4999866;28;20040;-74
2021/06/16 07:02:46;;;;;;;4.55;0.85;;;26.90;65.40;;;26.18;30.38;101753.28;4994584;28;20485;-73
2021/06/16 07:05:12;;;;;;;4.82;1.08;;;27.40;65.00;;;26.40;29.63;101763.66;4995780;28;20026;-74
2021/06/16 07:07:38;;;;;;;6.38;1.10;;;27.70;64.90;;;26.74;29.45;101754.97;5017264;28;20136;-74
2021/06/16 07:10:05;;;;;;;1.83;0.70;;;27.20;67.80;;;25.77;31.68;101756.22;5019254;28;20137;-74
2021/06/16 07:12:31;;;;;;;2.65;0.88;;;27.40;68.00;;;26.57;30.80;101759.34;5000902;28;20022;-73
2021/06/16 07:14:56;;;;;;;2.60;0.73;;;27.80;64.40;;;27.08;27.48;101753.44;5000695;28;20029;-73
2021/06/16 07:17:23;;;;;;;4.68;0.77;;;27.90;64.60;;;27.07;28.34;101759.84;4999144;28;20093;-73
2021/06/16 07:19:50;;;;;;;2.55;1.02;;;26.50;66.00;;;25.87;30.40;101753.47;5008197;28;20053;-73
2021/06/16 07:22:17;;;;;;;3.72;0.90;;;26.70;65.70;;;24.89;32.37;101760.78;4996671;28;20038;-73
2021/06/16 07:24:43;;;;;;;2.10;0.70;;;26.00;66.70;;;24.81;31.50;101744.47;5021311;28;20072;-73
2021/06/16 07:27:12;;;;;;;6.65;1.00;;;24.60;69.80;;;23.08;35.24;101752.31;5023567;28;20054;-73
2021/06/16 07:29:38;;;;;;;4.60;0.70;;;24.20;71.20;;;24.13;33.41;101747.81;5020403;28;20021;-73
2021/06/16 07:32:06;;;;;;;1.30;0.40;;;23.40;71.20;;;22.12;36.16;101751.97;5017679;28;20029;-73
2021/06/16 07:34:32;;;;;;;4.82;0.70;;;23.90;71.30;;;23.53;34.17;101749.44;5003792;28;20039;-73
2021/06/16 07:36:58;;;;;;;3.63;0.55;;;23.70;70.40;;;23.33;33.38;101754.66;5022604;28;20490;-73
2021/06/16 07:39:24;;;;;;;2.03;0.70;;;24.00;72.30;;;23.88;33.90;101737.50;5022151;28;20025;-73
2021/06/16 07:41:51;;;;;;;2.75;0.80;;;25.00;72.00;;;25.33;32.49;101730.75;5023499;28;20025;-73
2021/06/16 07:44:17;;;;;;;2.40;0.63;;;25.80;67.40;;;26.01;29.66;101730.63;5024767;28;20029;-73
2021/06/16 07:46:43;;;;;;;2.03;0.52;;;26.20;67.00;;;25.57;31.17;101736.53;5019266;28;20401;-73
2021/06/16 07:49:09;;;;;;;3.22;1.17;;;24.90;68.80;;;23.84;33.21;101752.19;5023524;28;20025;-73
2021/06/16 07:51:35;;;;;;;3.45;0.75;;;24.20;69.40;;;23.94;32.37;101739.66;5024347;28;20117;-73
2021/06/16 07:54:01;;;;;;;3.70;0.70;;;24.70;70.40;;;25.08;32.45;101743.78;5023341;28;20029;-73
2021/06/16 07:56:27;;;;;;;4.22;0.70;;;25.00;69.40;;;24.29;33.05;101741.91;5024891;28;20388;-73
2021/06/16 07:58:53;;;;;;;2.33;0.80;;;24.60;72.00;;;24.40;33.67;101742.78;4996428;28;20083;-73
2021/06/16 08:01:19;;;;;;;2.53;0.80;;;24.70;70.80;;;24.53;32.36;101738.88;5006284;28;20518;-72
2021/06/16 08:03:46;;;;;;;4.90;0.73;;;24.90;70.10;;;24.49;33.76;101739.31;5022336;28;20481;-73
2021/06/16 08:06:12;;;;;;;2.72;0.60;;;25.40;70.10;;;24.90;32.72;101742.78;4984347;28;20496;-73
2021/06/16 08:08:38;;;;;;;3.53;0.70;;;25.40;69.40;;;24.29;33.24;101746.44;4983143;28;20080;-74
2021/06/16 08:11:05;;;;;;;1.48;0.52;;;23.70;71.50;;;23.07;35.92;101743.44;5003870;28;20454;-73
2021/06/16 08:13:32;;;;;;;2.00;0.73;;;23.60;73.90;;;22.77;36.13;101732.53;4982615;28;20074;-73
2021/06/16 08:15:59;;;;;;;1.85;0.57;;;23.60;74.60;;;24.04;35.79;101737.84;5020260;28;20025;-73
2021/06/16 08:18:25;;;;;;;6.57;0.80;;;24.50;75.40;;;23.93;32.98;101733.41;5022434;28;20026;-72
2021/06/16 08:20:51;;;;;;;2.05;0.70;;;24.90;69.70;;;22.52;36.30;101742.56;5028155;28;20087;-73
2021/06/16 08:23:18;;;;;;;1.95;0.40;;;23.70;73.40;;;22.50;36.19;101731.09;5014973;28;20044;-73
2021/06/16 08:25:44;;;;;;;2.65;0.77;;;23.80;73.00;;;22.26;38.56;101734.78;5013020;28;20042;-73
2021/06/16 08:28:10;;;;;;;5.03;0.73;;;23.30;76.30;;;22.26;36.90;101737.47;5001508;28;20040;-72
2021/06/16 08:30:36;;;;;;;2.90;0.82;;;22.60;76.20;;;20.83;39.64;101739.53;5001901;28;20022;-72
2021/06/16 08:33:03;;;;;;;5.25;0.93;;;22.40;76.70;;;20.84;40.35;101736.75;5001327;28;20051;-73
2021/06/16 08:35:29;;;;;;;2.50;0.70;;;22.20;78.80;;;21.96;38.66;101731.84;5002611;28;20041;-72
2021/06/16 08:37:55;;;;;;;3.45;0.80;;;22.80;75.70;;;22.49;37.64;101721.34;5002446;28;20253;-72
2021/06/16 08:40:21;;;;;;;2.30;0.90;;;23.20;74.60;;;22.36;37.06;101726.03;5018298;28;20057;-73
2021/06/16 08:42:47;;;;;;;3.00;0.73;;;23.60;74.80;;;23.03;36.60;101727.69;5002438;28;25131;-73
2021/06/16 08:45:16;;;;;;;6.05;0.93;;;24.30;73.00;;;23.20;35.20;101732.50;5019012;28;20052;-73
2021/06/16 08:47:49;;;;;;;3.53;0.77;;;24.20;72.80;;;23.34;34.42;101729.47;5021536;28;20405;-73
2021/06/16 08:50:17;;;;;;;1.65;0.60;;;24.50;73.00;;;23.46;34.67;101732.97;5020834;28;20163;-73
2021/06/16 08:52:46;;;;;;;4.93;0.88;;;24.60;72.60;;;23.90;35.66;101722.06;5013346;28;20044;-73
2021/06/16 08:55:19;;;;;;;2.95;0.70;;;24.10;71.80;;;23.00;34.82;101733.28;5022616;28;20102;-73
2021/06/16 08:57:46;;;;;;;2.35;0.60;;;23.80;73.40;;;23.04;35.41;101737.44;5020767;28;20092;-73
2021/06/16 09:00:19;;;;;;;6.15;0.85;;;23.80;74.00;;;21.58;38.13;101741.06;5022632;28;20045;-72
2021/06/16 09:02:59;;;;;;;1.67;0.60;;;23.30;73.50;;;22.57;36.19;101729.63;4958217;28;20029;-72
2021/06/16 09:05:43;;;;;;;3.53;0.80;;;23.60;73.70;;;23.00;36.58;101733.28;4962507;28;20044;-73
2021/06/16 09:09:00;;;;;;;2.35;0.63;;;23.60;73.10;;;21.62;38.57;101735.34;4963295;28;20077;-73
2021/06/16 09:12:11;;;;;;;6.28;0.75;;;22.60;76.40;;;22.13;38.04;101728.66;4982082;28;20040;-72
2021/06/16 09:15:07;;;;;;;3.65;0.82;;;22.80;78.30;;;22.29;39.11;101720.28;4976588;28;20079;-73
2021/06/16 09:18:22;;;;;;;3.28;0.73;;;22.40;77.60;;;21.77;39.15;101719.91;4985219;28;20112;-73
2021/06/16 09:21:18;;;;;;;4.32;0.90;;;22.80;77.40;;;22.00;38.74;101718.06;4991412;28;20043;-73
2021/06/16 09:24:12;;;;;;;3.35;1.00;;;22.90;76.70;;;22.32;39.02;101715.50;4981813;28;20049;-72
2021/06/16 09:26:56;;;;;;;4.78;1.10;;;23.20;76.70;;;22.73;37.87;101713.97;4988213;28;20425;-73
2021/06/16 09:30:10;;;;;;;3.00;0.50;;;23.60;76.70;;;22.75;38.17;101721.06;4992103;28;20047;-73
2021/06/16 09:33:25;;;;;;;1.52;0.57;;;23.40;76.00;;;22.77;37.03;101722.63;4991627;28;20037;-72
2021/06/16 09:36:15;;;;;;;1.77;0.63;;;23.40;75.90;;;22.59;36.18;101716.94;4980011;28;20045;-72
2021/06/16 09:38:49;;;;;;;6.20;0.80;;;21.80;79.80;;;20.84;41.33;101714.44;4970058;28;20041;-72
2021/06/16 09:41:39;;;;;;;8.00;1.08;;;22.00;78.60;;;21.72;38.48;101722.06;4960873;28;20397;-73
2021/06/16 09:44:49;;;;;;;3.47;0.70;;;22.60;76.10;;;21.69;38.27;101722.31;4975816;28;20033;-73
2021/06/16 09:47:48;;;;;;;1.25;0.57;;;22.80;77.90;;;22.20;37.87;101721.84;4981067;28;20043;-73
2021/06/16 09:50:41;;;;;;;3.13;0.80;;;22.90;78.00;;;22.50;39.23;101715.00;4979193;28;20124;-73
2021/06/16 09:53:40;;;;;;;2.90;0.73;;;23.00;77.10;;;22.36;36.63;101723.34;4978186;28;20113;-73
2021/06/16 09:56:42;;;;;;;2.85;0.75;;;23.40;75.40;;;22.58;36.82;101700.97;4962727;28;20071;-73
2021/06/16 09:59:50;;;;;;;3.60;0.70;;;23.50;75.70;;;23.02;36.29;101710.72;4963467;28;20032;-73
2021/06/16 10:02:50;;;;;;;3.80;0.80;;;23.80;75.70;;;23.01;35.21;101702.81;4984301;28;20129;-73
2021/06/16 10:06:21;;;;;;;6.53;0.90;;;22.90;74.90;;;22.19;37.56;101709.41;4962338;28;20064;-73
2021/06/16 10:09:40;;;;;;;4.85;0.73;;;23.40;76.80;;;22.07;36.66;101705.00;4972594;28;20042;-73
2021/06/16 10:13:07;;;;;;;3.45;0.82;;;23.10;75.40;;;21.71;41.74;101693.56;4958291;28;20680;-73
2021/06/16 10:16:29;;;;;;;3.60;0.80;;;23.20;76.60;;;22.72;37.30;101695.28;4980184;28;20045;-73
2021/06/16 10:20:11;;;;;;;4.07;0.45;;;23.70;74.80;;;23.25;35.07;101691.81;4990049;28;20052;-74
2021/06/16 10:23:21;;;;;;;4.07;0.68;;;24.00;73.80;;;23.92;34.90;101677.91;4976316;28;20154;-73
2021/06/16 10:26:39;;;;;;;3.85;0.90;;;24.20;73.00;;;23.37;33.71;101688.09;5016550;28;20052;-73
2021/06/16 10:29:30;;;;;;;1.98;0.57;;;23.70;73.10;;;23.59;34.28;101686.22;4992268;28;20781;-73
2021/06/16 10:32:04;;;;;;;2.75;0.60;;;24.00;72.70;;;23.59;35.44;101673.63;4991448;28;20485;-73
2021/06/16 10:34:52;;;;;;;2.25;0.77;;;24.30;73.60;;;24.11;33.50;101670.91;5017115;28;20037;-73
2021/06/16 10:37:46;;;;;;;2.35;0.43;;;24.60;72.00;;;24.18;34.58;101669.38;5032942;28;20058;-74